createdAt,value
2022-11-02T00:03:05.796Z,8.09
2022-11-02T00:08:08.929Z,8.22
2022-11-02T00:13:11.828Z,8.42
2022-11-02T00:18:16.595Z,8.55
2022-11-02T00:23:19.987Z,8.35
2022-11-02T00:28:23.024Z,8.47
2022-11-02T00:33:27.732Z,8.55
2022-11-02T00:38:32.090Z,8.93
2022-11-02T00:43:35.014Z,8.77
2022-11-02T00:48:39.421Z,8.74
2022-11-02T00:53:42.349Z,8.68
2022-11-02T00:58:45.294Z,8.83
2022-11-02T01:03:50.029Z,8.80
2022-11-02T01:08:52.947Z,8.65
2022-11-02T01:13:55.826Z,8.60
2022-11-02T01:19:00.855Z,8.52
2022-11-02T01:24:04.431Z,8.35
2022-11-02T01:29:08.141Z,8.22
2022-11-02T01:34:13.428Z,8.02
2022-11-02T01:39:16.694Z,7.99
2022-11-02T01:44:29.383Z,8.02
2022-11-02T01:49:37.882Z,7.86
2022-11-02T01:54:43.464Z,7.77
2022-11-02T01:59:51.990Z,7.79
2022-11-02T02:05:03.443Z,8.01
2022-11-02T02:10:07.535Z,8.15
2022-11-02T02:15:11.889Z,8.25
2022-11-02T02:20:27.765Z,8.26
2022-11-02T02:25:51.624Z,8.07
2022-11-02T02:30:59.989Z,8.00
2022-11-02T02:36:08.975Z,8.01
2022-11-02T02:41:19.005Z,7.94
2022-11-02T02:46:33.349Z,8.21
2022-11-02T02:51:40.861Z,8.23
2022-11-02T02:56:51.906Z,8.24
2022-11-02T03:01:58.286Z,8.09
2022-11-02T03:07:03.950Z,8.22
2022-11-02T03:12:28.341Z,7.98
2022-11-02T03:17:36.813Z,8.04
2022-11-02T03:22:47.831Z,8.11
2022-11-02T03:27:57.822Z,7.79
2022-11-02T03:33:08.355Z,8.16
2022-11-02T03:38:16.683Z,8.09
2022-11-02T03:43:21.758Z,8.01
2022-11-02T03:48:33.366Z,7.85
2022-11-02T03:53:43.896Z,7.59
2022-11-02T03:58:46.981Z,7.40
2022-11-02T04:03:51.541Z,7.25
2022-11-02T04:08:55.096Z,7.17
2022-11-02T04:14:14.892Z,7.06
2022-11-02T04:19:29.841Z,7.48
2022-11-02T04:24:56.139Z,7.47
2022-11-02T04:30:00.271Z,7.23
2022-11-02T04:35:09.438Z,7.47
2022-11-02T04:40:13.570Z,7.35
2022-11-02T04:45:17.123Z,7.20
2022-11-02T04:50:21.473Z,7.27
2022-11-02T04:55:25.383Z,7.06
2022-11-02T05:00:29.364Z,6.94
2022-11-02T05:05:34.511Z,6.56
2022-11-02T05:10:37.931Z,6.57
2022-11-02T05:15:41.774Z,6.47
2022-11-02T05:20:51.704Z,6.39
2022-11-02T05:25:58.118Z,6.27
2022-11-02T05:31:02.881Z,6.33
2022-11-02T05:36:11.094Z,6.32
2022-11-02T05:41:16.691Z,6.05
2022-11-02T05:46:19.928Z,6.06
2022-11-02T05:51:24.206Z,6.08
2022-11-02T05:56:27.213Z,5.81
2022-11-02T06:01:30.178Z,5.79
2022-11-02T06:06:35.622Z,5.82
2022-11-02T06:11:38.526Z,5.73
2022-11-02T06:16:41.428Z,5.81
2022-11-02T06:21:48.294Z,5.91
2022-11-02T06:26:52.179Z,5.95
2022-11-02T06:31:55.288Z,5.94
2022-11-02T06:36:59.557Z,6.22
2022-11-02T06:42:02.489Z,6.37
2022-11-02T06:47:05.590Z,6.75
2022-11-02T06:52:10.635Z,7.44
2022-11-02T06:57:13.510Z,7.70
2022-11-02T07:02:16.659Z,7.89
2022-11-02T07:07:20.989Z,7.75
2022-11-02T07:12:24.223Z,7.42
2022-11-02T07:17:32.019Z,7.44
2022-11-02T07:22:36.711Z,7.43
2022-11-02T07:27:40.453Z,7.95
2022-11-02T07:32:44.458Z,8.36
2022-11-02T07:37:56.555Z,8.98
2022-11-02T07:42:59.787Z,9.35
2022-11-02T07:48:12.195Z,9.73
2022-11-02T07:53:16.549Z,9.98
2022-11-02T07:58:19.481Z,10.29
2022-11-02T08:03:22.447Z,10.65
2022-11-02T08:08:26.727Z,10.89
2022-11-02T08:13:32.783Z,10.92
2022-11-02T08:18:36.016Z,10.97
2022-11-02T08:23:40.320Z,11.13
2022-11-02T08:28:43.227Z,11.44
2022-11-02T08:33:46.367Z,11.85
2022-11-02T08:38:50.647Z,12.15
2022-11-02T08:43:53.566Z,12.38
2022-11-02T08:48:56.498Z,12.37
2022-11-02T08:54:00.790Z,12.53
2022-11-02T08:59:03.731Z,12.70
2022-11-02T09:04:06.690Z,12.74
2022-11-02T09:09:11.193Z,12.88
2022-11-02T09:14:14.584Z,12.70
2022-11-02T09:19:17.493Z,12.88
2022-11-02T09:24:21.786Z,12.87
2022-11-02T09:34:32.555Z,12.80
2022-11-02T09:39:36.810Z,12.78
2022-11-02T09:44:48.418Z,12.84
2022-11-02T09:49:52.146Z,12.68
2022-11-02T09:55:00.029Z,12.41
2022-11-02T10:00:03.594Z,12.32
2022-11-02T10:05:37.283Z,12.25
2022-11-02T10:10:52.738Z,12.29
2022-11-02T10:15:58.073Z,12.30
2022-11-02T10:21:06.210Z,12.29
2022-11-02T10:26:17.213Z,12.48
2022-11-02T10:31:27.020Z,12.54
2022-11-02T10:36:45.938Z,12.80
2022-11-02T10:42:02.749Z,12.99
2022-11-02T10:47:14.654Z,12.92
2022-11-02T10:52:19.100Z,13.10
2022-11-02T10:57:25.637Z,12.90
2022-11-02T11:02:29.168Z,12.67
2022-11-02T11:07:32.146Z,12.61
2022-11-02T11:12:42.307Z,12.70
2022-11-02T11:23:11.070Z,13.27
2022-11-02T11:28:25.513Z,12.96
2022-11-02T11:33:28.519Z,12.78
2022-11-02T11:38:31.568Z,12.61
2022-11-02T11:43:39.287Z,12.43
2022-11-02T11:48:46.011Z,12.78
2022-11-02T11:54:08.324Z,12.64
2022-11-02T11:59:22.354Z,12.66
2022-11-02T12:04:34.541Z,13.11
2022-11-02T12:09:44.947Z,13.00
2022-11-02T12:15:05.471Z,13.25
2022-11-02T12:20:28.120Z,13.25
2022-11-02T12:25:47.012Z,13.03
2022-11-02T12:31:02.505Z,12.98
2022-11-02T12:36:13.672Z,13.15
2022-11-02T12:41:26.071Z,13.37
2022-11-02T12:46:44.631Z,13.57
2022-11-02T12:51:58.674Z,13.29
2022-11-02T12:57:02.119Z,13.49
2022-11-02T13:02:12.607Z,13.41
2022-11-02T13:07:19.891Z,13.47
2022-11-02T13:12:25.591Z,12.99
2022-11-02T13:17:44.322Z,12.73
2022-11-02T13:22:55.295Z,12.67
2022-11-02T13:28:05.577Z,12.64
2022-11-02T13:33:18.526Z,12.84
2022-11-02T13:38:31.904Z,13.20
2022-11-02T13:44:12.059Z,13.56
2022-11-02T13:49:19.489Z,13.49
2022-11-02T13:54:27.435Z,13.21
2022-11-02T13:59:33.384Z,13.14
2022-11-02T14:04:41.418Z,13.09
2022-11-02T14:09:45.811Z,12.94
2022-11-02T14:15:28.245Z,12.58
2022-11-02T14:20:37.283Z,12.46
2022-11-02T14:25:48.698Z,12.32
2022-11-02T14:30:56.989Z,12.21
2022-11-02T14:36:03.765Z,12.19
2022-11-02T14:41:20.594Z,12.03
2022-11-02T14:46:39.888Z,11.88
2022-11-02T14:51:46.737Z,11.86
2022-11-02T14:56:54.207Z,11.80
2022-11-02T15:02:01.082Z,11.71
2022-11-02T15:07:07.451Z,11.57
2022-11-02T15:12:31.047Z,11.62
2022-11-02T15:17:53.857Z,11.40
2022-11-02T15:23:05.168Z,11.34
2022-11-02T15:28:15.065Z,11.34
2022-11-02T15:33:24.200Z,11.18
2022-11-02T15:38:35.263Z,11.05
2022-11-02T15:49:16.028Z,10.86
2022-11-02T15:54:30.798Z,10.64
2022-11-02T15:59:59.458Z,10.44
2022-11-02T16:05:03.653Z,10.28
2022-11-02T16:10:24.613Z,10.25
2022-11-02T16:15:28.806Z,10.31
2022-11-02T16:20:35.440Z,10.26
2022-11-02T16:25:44.839Z,9.99
2022-11-02T16:31:01.369Z,10.04
2022-11-02T16:36:04.994Z,10.10
2022-11-02T16:41:10.479Z,9.95
2022-11-02T16:46:16.645Z,9.61
2022-11-02T16:51:20.482Z,9.63
2022-11-02T16:56:29.309Z,9.51
2022-11-02T17:01:38.788Z,9.34
2022-11-02T17:06:42.969Z,9.22
2022-11-02T17:11:47.579Z,9.16
2022-11-02T17:17:02.275Z,9.00
2022-11-02T17:22:12.333Z,8.82
2022-11-02T17:27:25.676Z,8.64
2022-11-02T17:32:29.459Z,8.42
2022-11-02T17:37:33.539Z,8.41
2022-11-02T17:42:55.752Z,8.25
2022-11-02T17:48:00.425Z,8.14
2022-11-02T17:53:05.117Z,8.03
2022-11-02T17:58:09.634Z,7.88
2022-11-02T18:03:16.935Z,7.73
2022-11-02T18:08:20.392Z,7.43
2022-11-02T18:13:25.485Z,7.35
2022-11-02T18:18:28.471Z,7.85
2022-11-02T18:23:33.060Z,8.27
2022-11-02T18:28:37.597Z,8.22
2022-11-02T18:33:40.545Z,8.36
2022-11-02T18:38:43.506Z,8.49
2022-11-02T18:43:47.791Z,8.45
2022-11-02T18:48:50.954Z,8.45
2022-11-02T18:53:55.394Z,8.41
2022-11-02T18:58:59.961Z,8.28
2022-11-02T19:04:03.411Z,8.27
2022-11-02T19:09:23.050Z,8.36
2022-11-02T19:14:28.632Z,8.12
2022-11-02T19:19:32.277Z,7.62
2022-11-02T19:24:35.186Z,7.34
2022-11-02T19:29:39.495Z,7.22
2022-11-02T19:34:43.096Z,7.19
2022-11-02T19:39:46.003Z,6.96
2022-11-02T19:44:50.298Z,6.95
2022-11-02T19:49:53.224Z,7.13
2022-11-02T19:54:56.136Z,7.09
2022-11-02T20:00:00.473Z,7.03
2022-11-02T20:05:03.437Z,6.68
2022-11-02T20:10:07.014Z,6.57
2022-11-02T20:15:12.199Z,6.36
2022-11-02T20:20:15.160Z,6.40
2022-11-02T20:25:18.315Z,6.36
2022-11-02T20:30:23.134Z,6.37
2022-11-02T20:35:26.111Z,6.20
2022-11-02T20:40:32.203Z,6.32
2022-11-02T20:45:36.607Z,6.40
2022-11-02T20:50:39.641Z,6.60
2022-11-02T20:55:43.346Z,6.70
2022-11-02T21:00:48.581Z,6.79
2022-11-02T21:05:51.836Z,6.76
2022-11-02T21:10:58.671Z,6.91
2022-11-02T21:16:05.305Z,6.89
2022-11-02T21:21:09.922Z,6.80
2022-11-02T21:26:14.814Z,6.79
2022-11-02T21:31:20.950Z,6.86
2022-11-02T21:36:23.936Z,6.86
2022-11-02T21:41:29.084Z,6.72
2022-11-02T21:46:33.665Z,5.98
2022-11-02T21:51:38.491Z,5.74
2022-11-02T21:56:41.612Z,6.13
2022-11-02T22:01:47.277Z,6.40
2022-11-02T22:06:51.167Z,6.66
2022-11-02T22:12:16.166Z,6.74
2022-11-02T22:17:47.936Z,6.83
2022-11-02T22:22:43.843Z,6.95
2022-11-02T22:27:46.838Z,6.85
2022-11-02T22:32:51.182Z,6.80
2022-11-02T22:38:11.821Z,6.14
2022-11-02T22:43:15.134Z,5.88
2022-11-02T22:48:19.497Z,5.17
2022-11-02T22:53:23.932Z,4.69
2022-11-02T22:58:27.985Z,4.56
2022-11-02T23:03:33.805Z,4.38
2022-11-02T23:08:38.499Z,4.45
2022-11-02T23:13:41.604Z,4.55
2022-11-02T23:19:03.182Z,3.99
2022-11-02T23:24:24.392Z,4.26
2022-11-02T23:29:45.103Z,4.26
2022-11-02T23:35:06.752Z,4.49
2022-11-02T23:40:11.925Z,4.58
2022-11-02T23:45:15.029Z,4.67
2022-11-02T23:50:34.655Z,4.52
2022-11-02T23:55:54.867Z,4.50
